createdAt,value
2024-01-28T00:00:19.256Z,103066.09
2024-01-28T00:02:52.363Z,103063.34
2024-01-28T00:05:25.449Z,103061.50
2024-01-28T00:07:58.209Z,103058.00
2024-01-28T00:10:31.218Z,103057.63
2024-01-28T00:13:04.519Z,103065.13
2024-01-28T00:15:39.004Z,103061.28
2024-01-28T00:18:12.010Z,103059.78
2024-01-28T00:20:44.960Z,103059.06
2024-01-28T00:23:18.154Z,103062.19
2024-01-28T00:25:51.206Z,103066.06
2024-01-28T00:28:24.316Z,103057.22
2024-01-28T00:30:58.751Z,103062.00
2024-01-28T00:33:31.708Z,103057.94
2024-01-28T00:36:05.376Z,103058.13
2024-01-28T00:38:38.645Z,103055.16
2024-01-28T00:41:11.585Z,103055.91
2024-01-28T00:43:44.358Z,103054.56
2024-01-28T00:46:18.937Z,103056.59
2024-01-28T00:48:52.136Z,103045.53
2024-01-28T00:51:25.080Z,103046.63
2024-01-28T00:53:58.144Z,103049.69
2024-01-28T00:56:31.568Z,103039.56
2024-01-28T00:59:04.422Z,103041.22
2024-01-28T01:01:38.635Z,103038.28
2024-01-28T01:04:11.634Z,103042.13
2024-01-28T01:06:45.259Z,103035.50
2024-01-28T01:09:18.176Z,103034.94
2024-01-28T01:11:51.370Z,103045.53
2024-01-28T01:14:24.214Z,103049.56
2024-01-28T01:16:58.393Z,103047.34
2024-01-28T01:19:31.650Z,103032.25
2024-01-28T01:22:04.853Z,103035.56
2024-01-28T01:24:37.757Z,103039.41
2024-01-28T01:27:11.063Z,103036.47
2024-01-28T01:29:43.877Z,103038.63
2024-01-28T01:32:18.093Z,103040.81
2024-01-28T01:34:51.161Z,103043.00
2024-01-28T01:37:24.103Z,103036.00
2024-01-28T01:39:59.140Z,103040.03
2024-01-28T01:42:32.184Z,103030.09
2024-01-28T01:45:06.466Z,103030.28
2024-01-28T01:47:42.349Z,103033.41
2024-01-28T01:50:15.425Z,103039.09
2024-01-28T01:52:48.642Z,103030.56
2024-01-28T01:55:21.757Z,103033.81
2024-01-28T01:57:54.973Z,103021.31
2024-01-28T02:00:28.928Z,103025.44
2024-01-28T02:03:04.484Z,103017.53
2024-01-28T02:05:40.674Z,103022.09
2024-01-28T02:08:13.804Z,103025.56
2024-01-28T02:10:48.248Z,103024.06
2024-01-28T02:13:21.073Z,103023.13
2024-01-28T02:15:54.212Z,103016.63
2024-01-28T02:18:30.872Z,103033.13
2024-01-28T02:21:04.195Z,103021.94
2024-01-28T02:23:38.835Z,103033.84
2024-01-28T02:26:11.688Z,103031.28
2024-01-28T02:28:44.625Z,103029.06
2024-01-28T02:31:18.064Z,103032.53
2024-01-28T02:33:51.110Z,103028.13
2024-01-28T02:36:24.159Z,103014.31
2024-01-28T02:39:00.001Z,103008.94
2024-01-28T02:41:33.837Z,103015.34
2024-01-28T02:44:06.999Z,103015.34
2024-01-28T02:46:39.869Z,103008.53
2024-01-28T02:49:12.786Z,103004.84
2024-01-28T02:51:46.497Z,103006.16
2024-01-28T02:54:20.950Z,103000.09
2024-01-28T02:56:54.055Z,102990.94
2024-01-28T02:59:26.851Z,102983.97
2024-01-28T03:01:59.685Z,102991.28
2024-01-28T03:04:37.101Z,102999.53
2024-01-28T03:07:10.259Z,102993.66
2024-01-28T03:09:44.624Z,102996.22
2024-01-28T03:12:17.546Z,102998.06
2024-01-28T03:14:51.807Z,102987.06
2024-01-28T03:17:24.653Z,102983.56
2024-01-28T03:19:57.733Z,102975.75
2024-01-28T03:22:30.509Z,102978.09
2024-01-28T03:25:07.942Z,102973.69
2024-01-28T03:27:41.024Z,102972.25
2024-01-28T03:30:13.982Z,102967.81
2024-01-28T03:32:50.163Z,102964.13
2024-01-28T03:35:26.015Z,102971.84
2024-01-28T03:37:58.935Z,102976.78
2024-01-28T03:40:34.268Z,102963.72
2024-01-28T03:43:07.860Z,102963.72
2024-01-28T03:45:40.703Z,102965.00
2024-01-28T03:48:14.048Z,102966.84
2024-01-28T03:50:47.184Z,102961.13
2024-01-28T03:53:19.968Z,102956.16
2024-01-28T03:55:54.864Z,102953.59
2024-01-28T03:58:28.321Z,102954.47
2024-01-28T04:01:01.437Z,102953.47
2024-01-28T04:03:34.257Z,102945.91
2024-01-28T04:06:07.250Z,102943.06
2024-01-28T04:08:40.166Z,102942.38
2024-01-28T04:11:14.486Z,102942.72
2024-01-28T04:13:47.273Z,102938.84
2024-01-28T04:16:20.328Z,102938.97
2024-01-28T04:18:53.460Z,102944.00
2024-01-28T04:21:27.421Z,102946.38
2024-01-28T04:24:00.317Z,102944.19
2024-01-28T04:26:35.794Z,102944.00
2024-01-28T04:29:08.845Z,102942.38
2024-01-28T04:31:44.179Z,102938.66
2024-01-28T04:34:17.108Z,102938.81
2024-01-28T04:36:50.222Z,102937.09
2024-01-28T04:39:23.601Z,102942.03
2024-01-28T04:41:57.986Z,102940.38
2024-01-28T04:44:30.869Z,102946.31
2024-01-28T04:47:07.242Z,102940.97
2024-01-28T04:49:42.882Z,102934.72
2024-01-28T04:52:17.540Z,102932.56
2024-01-28T04:54:50.454Z,102933.59
2024-01-28T04:57:24.546Z,102943.25
2024-01-28T04:59:57.413Z,102947.97
2024-01-28T05:02:30.370Z,102938.09
2024-01-28T05:05:03.630Z,102938.31
2024-01-28T05:07:36.562Z,102931.53
2024-01-28T05:10:11.365Z,102937.72
2024-01-28T05:12:46.629Z,102934.94
2024-01-28T05:15:19.936Z,102928.16
2024-01-28T05:17:52.772Z,102920.59
2024-01-28T05:20:25.795Z,102917.44
2024-01-28T05:23:00.872Z,102911.91
2024-01-28T05:25:33.923Z,102915.88
2024-01-28T05:28:10.080Z,102905.00
2024-01-28T05:30:42.998Z,102909.44
2024-01-28T05:33:15.879Z,102906.66
2024-01-28T05:35:51.012Z,102908.09
2024-01-28T05:38:23.783Z,102905.75
2024-01-28T05:40:56.691Z,102905.00
2024-01-28T05:43:30.989Z,102898.38
2024-01-28T05:46:04.830Z,102908.94
2024-01-28T05:48:37.844Z,102918.81
2024-01-28T05:51:13.362Z,102920.44
2024-01-28T05:53:46.330Z,102911.13
2024-01-28T05:56:19.123Z,102911.63
2024-01-28T05:58:53.318Z,102914.19
2024-01-28T06:01:26.798Z,102909.78
2024-01-28T06:03:59.778Z,102907.22
2024-01-28T06:06:33.150Z,102904.66
2024-01-28T06:09:07.537Z,102917.56
2024-01-28T06:11:41.296Z,102909.28
2024-01-28T06:14:16.590Z,102914.59
2024-01-28T06:16:49.546Z,102916.97
2024-01-28T06:19:22.528Z,102909.47
2024-01-28T06:21:56.406Z,102914.19
2024-01-28T06:24:29.238Z,102912.16
2024-01-28T06:27:02.126Z,102911.22
2024-01-28T06:29:36.931Z,102905.19
2024-01-28T06:32:09.758Z,102907.75
2024-01-28T06:34:42.781Z,102911.22
2024-01-28T06:37:16.168Z,102916.38
2024-01-28T06:39:52.450Z,102922.94
2024-01-28T06:42:26.208Z,102909.91
2024-01-28T06:45:01.254Z,102911.16
2024-01-28T06:47:35.762Z,102904.66
2024-01-28T06:50:09.853Z,102899.25
2024-01-28T06:52:44.559Z,102904.13
2024-01-28T06:55:18.659Z,102901.56
2024-01-28T06:57:51.679Z,102893.69
2024-01-28T07:00:26.045Z,102890.91
2024-01-28T07:02:59.710Z,102891.97
2024-01-28T07:05:32.733Z,102893.41
2024-01-28T07:08:06.250Z,102896.88
2024-01-28T07:10:39.022Z,102897.38
2024-01-28T07:13:11.848Z,102894.31
2024-01-28T07:15:44.973Z,102894.81
2024-01-28T07:18:17.950Z,102898.31
2024-01-28T07:20:50.754Z,102896.25
2024-01-28T07:23:23.563Z,102890.84
2024-01-28T07:25:56.745Z,102889.41
2024-01-28T07:28:29.572Z,102887.63
2024-01-28T07:31:04.726Z,102903.63
2024-01-28T07:33:37.834Z,102895.81
2024-01-28T07:36:11.087Z,102895.53
2024-01-28T07:38:44.334Z,102893.34
2024-01-28T07:41:17.604Z,102893.75
2024-01-28T07:43:50.359Z,102893.44
2024-01-28T07:46:24.477Z,102886.13
2024-01-28T07:48:57.404Z,102889.28
2024-01-28T07:51:33.092Z,102885.91
2024-01-28T07:54:05.982Z,102882.28
2024-01-28T07:56:38.739Z,102882.28
2024-01-28T07:59:11.630Z,102884.56
2024-01-28T08:01:45.797Z,102877.25
2024-01-28T08:04:18.647Z,102876.19
2024-01-28T08:06:51.963Z,102872.47
2024-01-28T08:09:25.144Z,102877.81
2024-01-28T08:11:57.938Z,102876.94
2024-01-28T08:14:30.751Z,102876.34
2024-01-28T08:17:09.787Z,102874.91
2024-01-28T08:19:42.945Z,102878.56
2024-01-28T08:22:15.988Z,102881.53
2024-01-28T08:24:48.833Z,102888.31
2024-01-28T08:27:21.798Z,102887.28
2024-01-28T08:29:54.936Z,102885.44
2024-01-28T08:32:29.350Z,102873.34
2024-01-28T08:35:02.345Z,102881.22
2024-01-28T08:37:36.587Z,102881.28
2024-01-28T08:40:10.743Z,102880.69
2024-01-28T08:42:43.641Z,102888.25
2024-01-28T08:45:16.769Z,102890.44
2024-01-28T08:47:54.460Z,102886.09
2024-01-28T08:50:28.140Z,102883.16
2024-01-28T08:53:01.298Z,102878.31
2024-01-28T08:55:34.798Z,102884.03
2024-01-28T08:58:07.750Z,102873.03
2024-01-28T09:00:41.515Z,102871.94
2024-01-28T09:03:16.124Z,102868.72
2024-01-28T09:05:49.329Z,102864.72
2024-01-28T09:08:23.326Z,102866.03
2024-01-28T09:10:56.863Z,102870.88
2024-01-28T09:13:31.230Z,102868.88
2024-01-28T09:16:04.936Z,102872.59
2024-01-28T09:18:45.970Z,102870.63
2024-01-28T09:21:19.019Z,102862.56
2024-01-28T09:23:52.282Z,102871.03
2024-01-28T09:26:25.395Z,102862.84
2024-01-28T09:28:58.437Z,102853.47
2024-01-28T09:31:31.657Z,102851.84
2024-01-28T09:34:06.135Z,102850.78
2024-01-28T09:36:39.403Z,102845.81
2024-01-28T09:39:12.751Z,102851.16
2024-01-28T09:41:58.580Z,102855.59
2024-01-28T09:44:31.499Z,102849.00
2024-01-28T09:47:05.746Z,102852.31
2024-01-28T09:49:42.224Z,102869.03
2024-01-28T09:52:17.377Z,102865.41
2024-01-28T09:54:50.532Z,102854.72
2024-01-28T09:57:24.177Z,102862.06
2024-01-28T09:59:57.778Z,102866.88
2024-01-28T10:02:31.716Z,102858.41
2024-01-28T10:05:11.624Z,102851.22
2024-01-28T10:07:46.167Z,102851.94
2024-01-28T10:10:20.112Z,102848.09
2024-01-28T10:12:54.627Z,102844.19
2024-01-28T10:15:28.541Z,102851.03
2024-01-28T10:18:01.642Z,102840.69
2024-01-28T10:20:36.030Z,102841.78
2024-01-28T10:23:09.145Z,102841.22
2024-01-28T10:25:43.120Z,102834.00
2024-01-28T10:28:18.416Z,102832.19
2024-01-28T10:30:52.292Z,102827.41
2024-01-28T10:33:25.461Z,102829.00
2024-01-28T10:36:02.515Z,102827.34
2024-01-28T10:38:37.092Z,102831.19
2024-01-28T10:41:11.600Z,102826.16
2024-01-28T10:43:53.785Z,102816.25
2024-01-28T10:46:37.907Z,102811.03
2024-01-28T10:49:12.356Z,102802.38
2024-01-28T10:51:51.871Z,102806.50
2024-01-28T10:54:26.007Z,102808.53
2024-01-28T10:57:02.017Z,102804.09
2024-01-28T10:59:37.935Z,102798.00
2024-01-28T11:02:13.537Z,102803.06
2024-01-28T11:04:46.428Z,102791.97
2024-01-28T11:07:21.252Z,102789.38
2024-01-28T11:09:55.337Z,102783.56
2024-01-28T11:12:28.695Z,102785.00
2024-01-28T11:15:03.808Z,102781.47
2024-01-28T11:17:39.492Z,102772.56
2024-01-28T11:20:17.454Z,102769.66
2024-01-28T11:22:57.764Z,102765.03
2024-01-28T11:25:32.015Z,102765.69
2024-01-28T11:28:07.493Z,102755.84
2024-01-28T11:30:43.247Z,102757.22
2024-01-28T11:33:18.263Z,102746.84
2024-01-28T11:35:54.718Z,102740.81
2024-01-28T11:38:34.682Z,102733.34
2024-01-28T11:41:09.583Z,102734.47
2024-01-28T11:43:42.736Z,102726.13
2024-01-28T11:46:16.201Z,102720.47
2024-01-28T11:48:49.611Z,102719.75
2024-01-28T11:51:24.302Z,102721.78
2024-01-28T11:54:01.567Z,102721.19
2024-01-28T11:56:35.488Z,102726.53
2024-01-28T11:59:09.373Z,102714.25
2024-01-28T12:01:42.728Z,102710.91
2024-01-28T12:04:15.989Z,102708.78
2024-01-28T12:06:49.935Z,102711.69
2024-01-28T12:09:24.228Z,102703.19
2024-01-28T12:11:56.969Z,102695.75
2024-01-28T12:14:29.840Z,102693.34
2024-01-28T12:17:03.127Z,102675.25
2024-01-28T12:19:40.353Z,102673.72
2024-01-28T12:22:14.039Z,102664.44
2024-01-28T12:24:49.496Z,102661.25
2024-01-28T12:27:22.661Z,102656.16
2024-01-28T12:29:59.928Z,102647.78
2024-01-28T12:32:33.592Z,102641.25
2024-01-28T12:35:08.315Z,102651.19
2024-01-28T12:37:41.772Z,102647.84
2024-01-28T12:40:16.934Z,102653.66
2024-01-28T12:42:50.080Z,102648.34
2024-01-28T12:45:23.432Z,102632.22
2024-01-28T12:47:56.530Z,102633.47
2024-01-28T12:50:29.979Z,102623.56
2024-01-28T12:53:02.917Z,102619.47
2024-01-28T12:55:37.124Z,102618.84
2024-01-28T12:58:10.199Z,102628.75
2024-01-28T13:00:43.029Z,102622.22
2024-01-28T13:03:16.260Z,102619.94
2024-01-28T13:05:49.267Z,102626.19
2024-01-28T13:08:22.412Z,102609.88
2024-01-28T13:11:01.366Z,102600.53
2024-01-28T13:13:35.296Z,102611.06
2024-01-28T13:16:08.726Z,102599.00
2024-01-28T13:18:43.400Z,102602.22
2024-01-28T13:21:17.738Z,102597.94
2024-01-28T13:23:50.666Z,102591.69
2024-01-28T13:26:24.868Z,102585.28
2024-01-28T13:28:58.897Z,102577.84
2024-01-28T13:31:31.782Z,102570.31
2024-01-28T13:34:07.256Z,102572.94
2024-01-28T13:36:41.475Z,102570.97
2024-01-28T13:39:17.931Z,102572.16
2024-01-28T13:41:52.138Z,102575.22
2024-01-28T13:44:25.829Z,102563.59
2024-01-28T13:46:59.524Z,102576.09
2024-01-28T13:49:33.143Z,102567.09
2024-01-28T13:52:07.012Z,102566.81
2024-01-28T13:54:40.113Z,102557.16
2024-01-28T13:57:14.348Z,102559.00
2024-01-28T13:59:47.062Z,102563.28
2024-01-28T14:02:19.916Z,102564.22
2024-01-28T14:04:52.687Z,102561.47
2024-01-28T14:07:25.689Z,102561.31
2024-01-28T14:09:58.635Z,102554.16
2024-01-28T14:12:33.001Z,102563.59
2024-01-28T14:15:07.146Z,102559.63
2024-01-28T14:17:40.262Z,102555.22
2024-01-28T14:20:15.121Z,102558.72
2024-01-28T14:22:48.204Z,102556.91
2024-01-28T14:25:21.541Z,102539.78
2024-01-28T14:27:55.803Z,102552.44
2024-01-28T14:30:28.672Z,102541.16
2024-01-28T14:33:01.644Z,102541.28
2024-01-28T14:35:36.941Z,102536.41
2024-01-28T14:38:11.318Z,102532.59
2024-01-28T14:40:44.158Z,102539.31
2024-01-28T14:43:18.260Z,102529.09
2024-01-28T14:45:51.284Z,102529.25
2024-01-28T14:48:25.436Z,102537.16
2024-01-28T14:50:59.761Z,102537.34
2024-01-28T14:53:32.560Z,102538.13
2024-01-28T14:56:06.098Z,102536.75
2024-01-28T14:58:40.616Z,102520.13
2024-01-28T15:01:13.722Z,102518.16
2024-01-28T15:03:46.686Z,102512.50
2024-01-28T15:06:20.580Z,102500.88
2024-01-28T15:08:53.542Z,102501.16
2024-01-28T15:11:26.349Z,102494.47
2024-01-28T15:14:00.785Z,102496.47
2024-01-28T15:16:33.608Z,102490.38
2024-01-28T15:19:06.467Z,102490.66
2024-01-28T15:21:39.767Z,102491.91
2024-01-28T15:24:12.930Z,102493.59
2024-01-28T15:26:45.793Z,102486.25
2024-01-28T15:29:22.240Z,102487.78
2024-01-28T15:31:55.118Z,102485.38
2024-01-28T15:34:29.399Z,102481.72
2024-01-28T15:37:02.690Z,102480.78
2024-01-28T15:39:35.652Z,102483.56
2024-01-28T15:42:08.456Z,102492.84
2024-01-28T15:44:42.986Z,102500.19
2024-01-28T15:47:16.994Z,102486.75
2024-01-28T15:49:49.874Z,102489.19
2024-01-28T15:52:23.250Z,102484.59
2024-01-28T15:54:56.379Z,102487.50
2024-01-28T15:57:31.953Z,102481.88
2024-01-28T16:00:08.747Z,102485.06
2024-01-28T16:02:42.190Z,102475.78
2024-01-28T16:05:15.175Z,102466.75
2024-01-28T16:07:49.686Z,102474.97
2024-01-28T16:10:23.368Z,102470.72
2024-01-28T16:12:56.336Z,102475.91
2024-01-28T16:15:30.813Z,102469.75
2024-01-28T16:18:03.988Z,102463.22
2024-01-28T16:20:36.816Z,102472.94
2024-01-28T16:23:09.798Z,102468.22
2024-01-28T16:25:43.095Z,102463.50
2024-01-28T16:28:16.814Z,102467.16
2024-01-28T16:30:51.027Z,102470.75
2024-01-28T16:33:25.139Z,102479.28
2024-01-28T16:35:58.465Z,102480.66
2024-01-28T16:38:32.959Z,102478.75
2024-01-28T16:41:06.302Z,102482.25
2024-01-28T16:43:40.206Z,102473.56
2024-01-28T16:46:14.310Z,102480.44
2024-01-28T16:48:47.333Z,102476.91
2024-01-28T16:51:20.325Z,102463.81
2024-01-28T16:53:53.103Z,102466.41
2024-01-28T16:56:26.150Z,102473.88
2024-01-28T16:58:59.103Z,102469.13
2024-01-28T17:01:33.391Z,102467.31
2024-01-28T17:04:06.870Z,102456.03
2024-01-28T17:06:40.388Z,102449.47
2024-01-28T17:09:13.294Z,102454.63
2024-01-28T17:11:46.220Z,102458.41
2024-01-28T17:14:19.407Z,102457.94
2024-01-28T17:16:53.881Z,102456.13
2024-01-28T17:19:27.255Z,102451.66
2024-01-28T17:22:00.109Z,102455.31
2024-01-28T17:24:33.200Z,102449.34
2024-01-28T17:27:06.283Z,102451.59
2024-01-28T17:29:39.167Z,102443.38
2024-01-28T17:32:13.550Z,102447.03
2024-01-28T17:34:46.962Z,102443.53
2024-01-28T17:37:20.961Z,102447.34
2024-01-28T17:39:53.957Z,102451.88
2024-01-28T17:42:29.416Z,102448.97
2024-01-28T17:45:02.942Z,102460.06
2024-01-28T17:47:39.785Z,102450.97
2024-01-28T17:50:13.410Z,102454.03
2024-01-28T17:52:46.259Z,102449.53
2024-01-28T17:55:19.101Z,102445.38
2024-01-28T17:57:51.980Z,102444.63
2024-01-28T18:00:25.175Z,102444.72
2024-01-28T18:02:59.820Z,102449.31
2024-01-28T18:05:33.237Z,102441.81
2024-01-28T18:08:06.941Z,102434.03
2024-01-28T18:10:40.239Z,102434.59
2024-01-28T18:13:13.118Z,102424.06
2024-01-28T18:15:46.408Z,102429.81
2024-01-28T18:18:20.774Z,102428.56
2024-01-28T18:20:53.666Z,102426.06
2024-01-28T18:23:26.537Z,102418.31
2024-01-28T18:25:59.490Z,102423.47
2024-01-28T18:28:32.376Z,102434.09
2024-01-28T18:31:05.416Z,102411.91
2024-01-28T18:33:39.974Z,102410.84
2024-01-28T18:36:13.341Z,102408.25
2024-01-28T18:38:46.277Z,102408.53
2024-01-28T18:41:19.012Z,102408.34
2024-01-28T18:43:53.548Z,102415.25
2024-01-28T18:46:26.538Z,102407.94
2024-01-28T18:49:00.874Z,102406.44
2024-01-28T18:51:34.158Z,102403.53
2024-01-28T18:54:07.591Z,102411.59
2024-01-28T18:56:40.526Z,102398.97
2024-01-28T18:59:14.534Z,102401.31
2024-01-28T19:01:47.498Z,102395.78
2024-01-28T19:04:21.991Z,102401.38
2024-01-28T19:06:55.038Z,102393.91
2024-01-28T19:09:28.170Z,102389.81
2024-01-28T19:12:02.736Z,102395.97
2024-01-28T19:14:37.338Z,102396.16
2024-01-28T19:17:10.088Z,102401.31
2024-01-28T19:19:44.470Z,102387.81
2024-01-28T19:22:17.990Z,102399.66
2024-01-28T19:24:50.744Z,102386.63
2024-01-28T19:27:26.223Z,102381.72
2024-01-28T19:29:59.007Z,102380.56
2024-01-28T19:32:31.751Z,102380.75
2024-01-28T19:35:07.312Z,102369.91
2024-01-28T19:37:40.145Z,102373.06
2024-01-28T19:40:14.587Z,102374.50
2024-01-28T19:42:47.473Z,102361.78
2024-01-28T19:45:20.828Z,102353.88
2024-01-28T19:47:53.901Z,102353.13
2024-01-28T19:50:28.000Z,102356.59
2024-01-28T19:53:02.168Z,102347.09
2024-01-28T19:55:35.120Z,102351.88
2024-01-28T19:58:09.062Z,102352.03
2024-01-28T20:00:41.882Z,102355.25
2024-01-28T20:03:18.985Z,102351.75
2024-01-28T20:05:53.307Z,102348.09
2024-01-28T20:08:26.442Z,102344.94
2024-01-28T20:10:59.501Z,102350.19
2024-01-28T20:13:32.468Z,102342.63
2024-01-28T20:16:05.875Z,102344.53
2024-01-28T20:18:39.167Z,102346.59
2024-01-28T20:21:13.411Z,102340.34
2024-01-28T20:23:47.095Z,102342.91
2024-01-28T20:26:20.380Z,102343.25
2024-01-28T20:28:53.388Z,102341.09
2024-01-28T20:31:27.091Z,102335.03
2024-01-28T20:34:01.321Z,102334.69
2024-01-28T20:36:35.697Z,102339.25
2024-01-28T20:39:09.375Z,102326.78
2024-01-28T20:41:42.633Z,102332.19
2024-01-28T20:44:15.377Z,102330.03
2024-01-28T20:46:48.215Z,102330.19
2024-01-28T20:49:22.023Z,102324.47
2024-01-28T20:51:58.030Z,102321.88
2024-01-28T20:54:31.272Z,102319.56
2024-01-28T20:57:08.183Z,102318.44
2024-01-28T20:59:43.490Z,102319.03
2024-01-28T21:02:17.818Z,102320.81
2024-01-28T21:04:51.146Z,102317.53
2024-01-28T21:07:25.267Z,102314.94
2024-01-28T21:09:58.205Z,102314.63
2024-01-28T21:12:31.519Z,102310.38
2024-01-28T21:15:05.526Z,102314.44
2024-01-28T21:17:39.118Z,102304.88
2024-01-28T21:20:13.509Z,102302.88
2024-01-28T21:22:48.049Z,102301.81
2024-01-28T21:25:21.004Z,102300.31
2024-01-28T21:27:54.073Z,102301.41
2024-01-28T21:30:28.435Z,102293.50
2024-01-28T21:33:01.867Z,102297.16
2024-01-28T21:35:34.942Z,102298.41
2024-01-28T21:38:09.597Z,102298.97
2024-01-28T21:40:42.660Z,102295.16
2024-01-28T21:43:15.825Z,102292.00
2024-01-28T21:45:48.755Z,102293.06
2024-01-28T21:48:22.138Z,102290.84
2024-01-28T21:50:55.080Z,102282.94
2024-01-28T21:53:29.395Z,102285.28
2024-01-28T21:56:04.255Z,102294.28
2024-01-28T21:58:37.351Z,102288.63
2024-01-28T22:01:10.569Z,102289.53
2024-01-28T22:03:45.702Z,102287.50
2024-01-28T22:06:19.275Z,102284.72
2024-01-28T22:08:56.416Z,102291.00
2024-01-28T22:11:29.821Z,102275.47
2024-01-28T22:14:03.691Z,102276.56
2024-01-28T22:16:36.633Z,102266.66
2024-01-28T22:19:11.666Z,102263.91
2024-01-28T22:21:45.089Z,102263.91
2024-01-28T22:24:20.396Z,102264.09
2024-01-28T22:26:53.698Z,102261.66
2024-01-28T22:29:26.483Z,102264.41
2024-01-28T22:31:59.660Z,102267.75
2024-01-28T22:34:33.030Z,102270.16
2024-01-28T22:37:06.456Z,102268.97
2024-01-28T22:39:42.782Z,102270.66
2024-01-28T22:42:16.013Z,102266.56
2024-01-28T22:44:48.936Z,102266.56
2024-01-28T22:47:22.396Z,102267.00
2024-01-28T22:49:57.338Z,102263.81
2024-01-28T22:52:32.713Z,102262.16
2024-01-28T22:55:09.621Z,102253.34
2024-01-28T22:57:42.624Z,102253.84
2024-01-28T23:00:24.707Z,102249.69
2024-01-28T23:02:58.109Z,102250.59
2024-01-28T23:05:31.254Z,102244.97
2024-01-28T23:08:04.365Z,102246.19
2024-01-28T23:10:38.615Z,102243.38
2024-01-28T23:13:11.847Z,102238.69
2024-01-28T23:15:45.305Z,102239.63
2024-01-28T23:18:18.716Z,102230.72
2024-01-28T23:20:51.730Z,102230.97
2024-01-28T23:23:24.492Z,102223.38
2024-01-28T23:25:58.697Z,102230.53
2024-01-28T23:28:31.730Z,102235.38
2024-01-28T23:31:09.334Z,102227.16
2024-01-28T23:33:42.473Z,102224.06
2024-01-28T23:36:15.487Z,102223.06
2024-01-28T23:38:48.708Z,102223.50
2024-01-28T23:41:23.117Z,102220.50
2024-01-28T23:43:56.392Z,102222.31
2024-01-28T23:46:29.670Z,102212.50
2024-01-28T23:49:02.554Z,102207.75
2024-01-28T23:51:35.351Z,102205.75
2024-01-28T23:54:08.136Z,102204.09
2024-01-28T23:56:42.267Z,102201.53
2024-01-28T23:59:15.117Z,102207.69
